sensor_id;sensor_type;location;lat;lon;timestamp;pressure;altitude;pressure_sealevel;temperature;humidity
5550;BME280;2798;42.716;23.256;2023-05-25T00:02:01;94697.38;;;18.29;84.85
5550;BME280;2798;42.716;23.256;2023-05-25T00:04:29;94686.47;;;18.25;85.65
5550;BME280;2798;42.716;23.256;2023-05-25T00:06:55;94695.09;;;18.26;85.55
5550;BME280;2798;42.716;23.256;2023-05-25T00:09:21;94701.75;;;18.20;84.58
5550;BME280;2798;42.716;23.256;2023-05-25T00:11:46;94704.66;;;18.17;86.45
5550;BME280;2798;42.716;23.256;2023-05-25T00:14:12;94695.69;;;18.11;85.25
5550;BME280;2798;42.716;23.256;2023-05-25T00:16:37;94697.78;;;18.08;86.08
5550;BME280;2798;42.716;23.256;2023-05-25T00:19:05;94695.00;;;18.01;85.50
5550;BME280;2798;42.716;23.256;2023-05-25T00:21:31;94690.75;;;17.91;86.63
5550;BME280;2798;42.716;23.256;2023-05-25T00:23:59;94693.47;;;17.82;86.64
5550;BME280;2798;42.716;23.256;2023-05-25T00:26:25;94685.00;;;17.71;88.14
5550;BME280;2798;42.716;23.256;2023-05-25T00:28:50;94695.56;;;17.70;87.94
5550;BME280;2798;42.716;23.256;2023-05-25T00:31:15;94692.78;;;17.71;89.00
5550;BME280;2798;42.716;23.256;2023-05-25T00:33:41;94695.91;;;17.75;88.18
5550;BME280;2798;42.716;23.256;2023-05-25T00:36:07;94697.22;;;17.79;88.30
5550;BME280;2798;42.716;23.256;2023-05-25T00:38:33;94700.47;;;17.81;88.30
5550;BME280;2798;42.716;23.256;2023-05-25T00:40:58;94698.69;;;17.82;87.68
5550;BME280;2798;42.716;23.256;2023-05-25T00:43:24;94695.91;;;17.75;88.22
5550;BME280;2798;42.716;23.256;2023-05-25T00:45:50;94691.16;;;17.70;88.48
5550;BME280;2798;42.716;23.256;2023-05-25T00:48:18;94703.22;;;17.71;88.15
5550;BME280;2798;42.716;23.256;2023-05-25T00:50:44;94696.69;;;17.75;88.29
5550;BME280;2798;42.716;23.256;2023-05-25T00:53:11;94699.78;;;17.71;88.14
5550;BME280;2798;42.716;23.256;2023-05-25T00:55:45;94699.25;;;17.67;88.88
5550;BME280;2798;42.716;23.256;2023-05-25T00:58:15;94707.91;;;17.67;88.42
5550;BME280;2798;42.716;23.256;2023-05-25T01:00:44;94663.56;;;17.42;88.42
5550;BME280;2798;42.716;23.256;2023-05-25T01:03:14;94702.44;;;17.52;87.90
5550;BME280;2798;42.716;23.256;2023-05-25T01:05:44;94701.00;;;17.50;87.80
5550;BME280;2798;42.716;23.256;2023-05-25T01:08:13;94712.53;;;17.47;88.54
5550;BME280;2798;42.716;23.256;2023-05-25T01:10:39;94713.16;;;17.41;88.17
5550;BME280;2798;42.716;23.256;2023-05-25T01:13:07;94710.81;;;17.29;89.14
5550;BME280;2798;42.716;23.256;2023-05-25T01:15:33;94714.19;;;17.22;89.15
5550;BME280;2798;42.716;23.256;2023-05-25T01:17:59;94712.59;;;17.29;90.13
5550;BME280;2798;42.716;23.256;2023-05-25T01:20:26;94700.66;;;17.18;89.37
5550;BME280;2798;42.716;23.256;2023-05-25T01:22:58;94705.56;;;17.21;89.81
5550;BME280;2798;42.716;23.256;2023-05-25T01:25:48;94698.56;;;17.22;89.51
5550;BME280;2798;42.716;23.256;2023-05-25T01:28:19;94693.81;;;17.17;89.91
5550;BME280;2798;42.716;23.256;2023-05-25T01:30:48;94691.88;;;17.19;89.63
5550;BME280;2798;42.716;23.256;2023-05-25T01:33:15;94686.63;;;17.11;89.98
5550;BME280;2798;42.716;23.256;2023-05-25T01:35:43;94664.00;;;16.85;90.12
5550;BME280;2798;42.716;23.256;2023-05-25T01:38:09;94687.59;;;16.91;90.67
5550;BME280;2798;42.716;23.256;2023-05-25T01:40:35;94692.00;;;16.91;91.24
5550;BME280;2798;42.716;23.256;2023-05-25T01:43:01;94685.47;;;16.87;91.79
5550;BME280;2798;42.716;23.256;2023-05-25T01:45:26;94684.28;;;16.81;92.02
5550;BME280;2798;42.716;23.256;2023-05-25T01:53:35;94681.09;;;16.87;92.23
5550;BME280;2798;42.716;23.256;2023-05-25T01:56:08;94681.94;;;16.96;91.74
5550;BME280;2798;42.716;23.256;2023-05-25T01:58:38;94685.88;;;17.00;90.93
5550;BME280;2798;42.716;23.256;2023-05-25T02:01:06;94685.38;;;16.97;90.53
5550;BME280;2798;42.716;23.256;2023-05-25T02:03:32;94690.34;;;16.90;91.06
5550;BME280;2798;42.716;23.256;2023-05-25T02:05:57;94693.25;;;16.87;90.74
5550;BME280;2798;42.716;23.256;2023-05-25T02:08:23;94694.09;;;16.87;89.50
5550;BME280;2798;42.716;23.256;2023-05-25T02:10:48;94698.75;;;16.84;87.69
5550;BME280;2798;42.716;23.256;2023-05-25T02:13:14;94707.38;;;16.84;89.86
5550;BME280;2798;42.716;23.256;2023-05-25T02:15:39;94709.09;;;16.75;86.71
5550;BME280;2798;42.716;23.256;2023-05-25T02:18:05;94685.72;;;16.57;86.74
5550;BME280;2798;42.716;23.256;2023-05-25T02:20:31;94672.06;;;16.37;91.42
5550;BME280;2798;42.716;23.256;2023-05-25T02:22:56;94707.09;;;16.51;93.14
5550;BME280;2798;42.716;23.256;2023-05-25T02:25:22;94707.53;;;16.46;95.24
5550;BME280;2798;42.716;23.256;2023-05-25T02:31:44;94683.06;;;16.30;94.93
5550;BME280;2798;42.716;23.256;2023-05-25T02:34:10;94679.94;;;16.27;94.11
5550;BME280;2798;42.716;23.256;2023-05-25T02:36:36;94716.31;;;16.45;92.84
5550;BME280;2798;42.716;23.256;2023-05-25T02:39:01;94723.31;;;16.35;93.46
5550;BME280;2798;42.716;23.256;2023-05-25T02:41:27;94725.88;;;16.26;93.95
5550;BME280;2798;42.716;23.256;2023-05-25T02:43:52;94723.03;;;16.19;93.56
5550;BME280;2798;42.716;23.256;2023-05-25T02:46:18;94732.59;;;16.19;93.13
5550;BME280;2798;42.716;23.256;2023-05-25T02:48:46;94737.09;;;16.17;94.33
5550;BME280;2798;42.716;23.256;2023-05-25T02:51:11;94736.22;;;16.08;94.21
5550;BME280;2798;42.716;23.256;2023-05-25T02:53:37;94732.13;;;16.05;94.73
5550;BME280;2798;42.716;23.256;2023-05-25T02:56:03;94744.25;;;16.15;95.28
5550;BME280;2798;42.716;23.256;2023-05-25T02:58:29;94728.38;;;16.18;94.21
5550;BME280;2798;42.716;23.256;2023-05-25T03:00:55;94731.34;;;16.23;94.16
5550;BME280;2798;42.716;23.256;2023-05-25T03:03:20;94723.84;;;16.20;94.19
5550;BME280;2798;42.716;23.256;2023-05-25T03:05:47;94745.38;;;16.30;93.43
5550;BME280;2798;42.716;23.256;2023-05-25T03:08:12;94748.56;;;16.24;93.72
5550;BME280;2798;42.716;23.256;2023-05-25T03:10:38;94745.03;;;16.15;94.59
5550;BME280;2798;42.716;23.256;2023-05-25T03:13:03;94745.88;;;16.16;94.74
5550;BME280;2798;42.716;23.256;2023-05-25T03:15:29;94738.38;;;16.13;95.13
5550;BME280;2798;42.716;23.256;2023-05-25T03:17:54;94737.53;;;16.12;95.29
5550;BME280;2798;42.716;23.256;2023-05-25T03:20:25;94746.31;;;16.11;94.43
5550;BME280;2798;42.716;23.256;2023-05-25T03:22:51;94740.44;;;16.09;95.02
5550;BME280;2798;42.716;23.256;2023-05-25T03:33:04;94751.97;;;16.25;95.50
5550;BME280;2798;42.716;23.256;2023-05-25T03:35:30;94755.38;;;16.25;94.92
5550;BME280;2798;42.716;23.256;2023-05-25T03:37:55;94765.91;;;16.24;94.41
5550;BME280;2798;42.716;23.256;2023-05-25T03:40:21;94763.06;;;16.17;94.91
5550;BME280;2798;42.716;23.256;2023-05-25T03:42:46;94763.91;;;16.17;95.17
5550;BME280;2798;42.716;23.256;2023-05-25T03:45:12;94760.22;;;16.20;95.00
5550;BME280;2798;42.716;23.256;2023-05-25T03:47:37;94732.13;;;16.05;93.97
5550;BME280;2798;42.716;23.256;2023-05-25T03:50:03;94760.88;;;16.22;94.91
5550;BME280;2798;42.716;23.256;2023-05-25T03:52:31;94767.56;;;16.25;96.55
5550;BME280;2798;42.716;23.256;2023-05-25T03:54:57;94765.41;;;16.38;95.13
5550;BME280;2798;42.716;23.256;2023-05-25T03:57:22;94767.56;;;16.43;95.97
5550;BME280;2798;42.716;23.256;2023-05-25T03:59:48;94772.69;;;16.53;94.08
5550;BME280;2798;42.716;23.256;2023-05-25T04:02:13;94768.72;;;16.59;93.93
5550;BME280;2798;42.716;23.256;2023-05-25T04:04:38;94767.75;;;16.60;93.81
5550;BME280;2798;42.716;23.256;2023-05-25T04:07:06;94775.38;;;16.61;93.92
5550;BME280;2798;42.716;23.256;2023-05-25T04:09:31;94774.41;;;16.62;94.07
5550;BME280;2798;42.716;23.256;2023-05-25T04:11:57;94773.25;;;16.75;93.94
5550;BME280;2798;42.716;23.256;2023-05-25T04:14:22;94780.16;;;16.84;93.31
5550;BME280;2798;42.716;23.256;2023-05-25T04:16:48;94786.06;;;16.95;93.20
5550;BME280;2798;42.716;23.256;2023-05-25T04:19:13;94788.22;;;16.99;92.43
5550;BME280;2798;42.716;23.256;2023-05-25T04:21:39;94782.56;;;17.04;92.40
5550;BME280;2798;42.716;23.256;2023-05-25T04:24:04;94790.63;;;17.11;92.76
5550;BME280;2798;42.716;23.256;2023-05-25T04:26:31;94798.03;;;17.24;92.04
5550;BME280;2798;42.716;23.256;2023-05-25T04:28:57;94793.22;;;17.29;89.48
5550;BME280;2798;42.716;23.256;2023-05-25T04:31:23;94803.53;;;17.39;91.42
5550;BME280;2798;42.716;23.256;2023-05-25T04:33:51;94805.38;;;17.47;90.26
5550;BME280;2798;42.716;23.256;2023-05-25T04:36:16;94775.88;;;17.38;86.53
5550;BME280;2798;42.716;23.256;2023-05-25T04:38:42;94809.66;;;17.56;85.48
5550;BME280;2798;42.716;23.256;2023-05-25T04:41:14;94809.81;;;17.54;84.46
5550;BME280;2798;42.716;23.256;2023-05-25T04:43:39;94817.09;;;17.51;83.88
5550;BME280;2798;42.716;23.256;2023-05-25T04:46:05;94817.59;;;17.54;83.84
5550;BME280;2798;42.716;23.256;2023-05-25T04:48:32;94817.59;;;17.54;83.64
5550;BME280;2798;42.716;23.256;2023-05-25T04:50:58;94811.31;;;17.57;87.66
5550;BME280;2798;42.716;23.256;2023-05-25T04:53:27;94811.03;;;17.69;87.50
5550;BME280;2798;42.716;23.256;2023-05-25T04:55:53;94796.28;;;17.77;88.64
5550;BME280;2798;42.716;23.256;2023-05-25T04:58:20;94797.78;;;17.88;88.06
5550;BME280;2798;42.716;23.256;2023-05-25T05:00:47;94788.72;;;18.01;88.70
5550;BME280;2798;42.716;23.256;2023-05-25T05:03:12;94792.59;;;18.15;87.32
5550;BME280;2798;42.716;23.256;2023-05-25T05:05:38;94791.47;;;18.26;87.16
5550;BME280;2798;42.716;23.256;2023-05-25T05:08:04;94790.69;;;18.34;86.27
5550;BME280;2798;42.716;23.256;2023-05-25T05:10:29;94801.81;;;18.44;86.34
5550;BME280;2798;42.716;23.256;2023-05-25T05:12:55;94792.88;;;18.55;85.47
5550;BME280;2798;42.716;23.256;2023-05-25T05:15:20;94800.22;;;18.68;79.66
5550;BME280;2798;42.716;23.256;2023-05-25T05:17:46;94797.59;;;18.51;80.91
5550;BME280;2798;42.716;23.256;2023-05-25T05:20:11;94807.69;;;18.55;78.25
5550;BME280;2798;42.716;23.256;2023-05-25T05:25:12;94801.50;;;18.56;80.67
5550;BME280;2798;42.716;23.256;2023-05-25T05:27:38;94803.97;;;18.65;77.66
5550;BME280;2798;42.716;23.256;2023-05-25T05:30:04;94803.31;;;18.63;77.71
5550;BME280;2798;42.716;23.256;2023-05-25T05:32:30;94812.72;;;18.56;77.82
5550;BME280;2798;42.716;23.256;2023-05-25T05:34:55;94812.56;;;18.49;78.17
5550;BME280;2798;42.716;23.256;2023-05-25T05:37:21;94814.03;;;18.52;77.97
5550;BME280;2798;42.716;23.256;2023-05-25T05:39:46;94816.50;;;18.53;78.27
5550;BME280;2798;42.716;23.256;2023-05-25T05:42:11;94823.03;;;18.66;78.77
5550;BME280;2798;42.716;23.256;2023-05-25T05:48:27;94816.84;;;18.75;77.24
5550;BME280;2798;42.716;23.256;2023-05-25T05:50:53;94824.03;;;18.90;76.32
5550;BME280;2798;42.716;23.256;2023-05-25T05:55:43;94818.81;;;18.82;77.88
5550;BME280;2798;42.716;23.256;2023-05-25T05:58:09;94826.00;;;18.88;77.07
5550;BME280;2798;42.716;23.256;2023-05-25T06:00:34;94828.63;;;18.96;76.56
5550;BME280;2798;42.716;23.256;2023-05-25T06:03:00;94803.53;;;19.03;80.50
5550;BME280;2798;42.716;23.256;2023-05-25T06:05:26;94821.16;;;19.35;74.92
5550;BME280;2798;42.716;23.256;2023-05-25T06:10:40;94830.13;;;19.66;74.99
5550;BME280;2798;42.716;23.256;2023-05-25T06:13:06;94817.88;;;19.58;73.73
5550;BME280;2798;42.716;23.256;2023-05-25T06:15:32;94826.00;;;19.88;72.62
5550;BME280;2798;42.716;23.256;2023-05-25T06:17:57;94818.31;;;19.95;75.95
5550;BME280;2798;42.716;23.256;2023-05-25T06:20:23;94825.97;;;20.05;71.91
5550;BME280;2798;42.716;23.256;2023-05-25T06:22:48;94826.16;;;20.03;71.58
5550;BME280;2798;42.716;23.256;2023-05-25T06:25:14;94831.34;;;20.11;71.73
5550;BME280;2798;42.716;23.256;2023-05-25T06:27:40;94833.63;;;20.23;70.67
5550;BME280;2798;42.716;23.256;2023-05-25T06:30:06;94830.16;;;20.31;71.26
5550;BME280;2798;42.716;23.256;2023-05-25T06:32:32;94832.66;;;20.47;70.91
5550;BME280;2798;42.716;23.256;2023-05-25T06:34:57;94834.38;;;20.63;70.96
5550;BME280;2798;42.716;23.256;2023-05-25T06:37:23;94838.22;;;20.84;70.77
5550;BME280;2798;42.716;23.256;2023-05-25T06:39:48;94834.09;;;20.90;69.90
5550;BME280;2798;42.716;23.256;2023-05-25T06:42:13;94829.38;;;20.94;70.07
5550;BME280;2798;42.716;23.256;2023-05-25T06:44:39;94837.06;;;20.87;70.70
5550;BME280;2798;42.716;23.256;2023-05-25T06:47:05;94843.78;;;20.81;71.07
5550;BME280;2798;42.716;23.256;2023-05-25T06:49:31;94830.38;;;20.84;71.12
5550;BME280;2798;42.716;23.256;2023-05-25T06:51:56;94828.56;;;20.85;71.58
5550;BME280;2798;42.716;23.256;2023-05-25T06:54:22;94848.38;;;21.11;71.69
5550;BME280;2798;42.716;23.256;2023-05-25T06:56:47;94841.03;;;21.30;71.12
5550;BME280;2798;42.716;23.256;2023-05-25T06:59:13;94852.66;;;21.51;71.14
5550;BME280;2798;42.716;23.256;2023-05-25T07:01:38;94847.28;;;21.67;70.77
5550;BME280;2798;42.716;23.256;2023-05-25T07:04:03;94850.50;;;21.78;70.16
5550;BME280;2798;42.716;23.256;2023-05-25T07:06:29;94836.97;;;21.89;69.43
5550;BME280;2798;42.716;23.256;2023-05-25T07:08:55;94842.56;;;22.01;68.20
5550;BME280;2798;42.716;23.256;2023-05-25T07:11:20;94835.97;;;22.05;68.41
5550;BME280;2798;42.716;23.256;2023-05-25T07:13:46;94845.56;;;22.13;66.07
5550;BME280;2798;42.716;23.256;2023-05-25T07:16:12;94827.03;;;22.15;66.08
5550;BME280;2798;42.716;23.256;2023-05-25T07:18:38;94834.44;;;22.26;66.88
5550;BME280;2798;42.716;23.256;2023-05-25T07:21:05;94845.28;;;22.23;68.34
5550;BME280;2798;42.716;23.256;2023-05-25T07:23:37;94857.13;;;22.04;68.73
5550;BME280;2798;42.716;23.256;2023-05-25T07:26:05;94842.09;;;21.97;68.80
5550;BME280;2798;42.716;23.256;2023-05-25T07:28:30;94849.59;;;22.01;69.04
5550;BME280;2798;42.716;23.256;2023-05-25T07:30:56;94840.13;;;22.15;69.30
5550;BME280;2798;42.716;23.256;2023-05-25T07:33:21;94853.06;;;22.16;69.00
5550;BME280;2798;42.716;23.256;2023-05-25T07:35:46;94845.09;;;22.25;66.58
5550;BME280;2798;42.716;23.256;2023-05-25T07:38:12;94847.72;;;22.25;65.66
5550;BME280;2798;42.716;23.256;2023-05-25T07:40:37;94851.59;;;22.29;63.67
5550;BME280;2798;42.716;23.256;2023-05-25T07:43:03;94847.44;;;22.34;62.50
5550;BME280;2798;42.716;23.256;2023-05-25T07:45:29;94843.75;;;22.29;61.69
5550;BME280;2798;42.716;23.256;2023-05-25T07:47:54;94838.94;;;22.17;60.89
5550;BME280;2798;42.716;23.256;2023-05-25T07:50:20;94841.56;;;22.17;61.65
5550;BME280;2798;42.716;23.256;2023-05-25T07:52:46;94838.25;;;22.08;61.76
5550;BME280;2798;42.716;23.256;2023-05-25T07:55:11;94840.03;;;22.08;62.63
5550;BME280;2798;42.716;23.256;2023-05-25T07:57:37;94837.78;;;22.05;62.83
5550;BME280;2798;42.716;23.256;2023-05-25T08:00:03;94854.16;;;22.07;60.50
5550;BME280;2798;42.716;23.256;2023-05-25T08:02:35;94855.19;;;21.97;60.13
5550;BME280;2798;42.716;23.256;2023-05-25T08:05:01;94855.19;;;21.82;61.50
5550;BME280;2798;42.716;23.256;2023-05-25T08:07:31;94859.59;;;21.43;64.33
5550;BME280;2798;42.716;23.256;2023-05-25T08:09:56;94864.72;;;21.13;65.13
5550;BME280;2798;42.716;23.256;2023-05-25T08:12:22;94880.25;;;20.83;66.60
5550;BME280;2798;42.716;23.256;2023-05-25T08:14:47;94883.88;;;20.25;67.78
5550;BME280;2798;42.716;23.256;2023-05-25T08:17:12;94885.72;;;19.91;69.59
5550;BME280;2798;42.716;23.256;2023-05-25T08:19:38;94893.25;;;19.52;72.55
5550;BME280;2798;42.716;23.256;2023-05-25T08:27:48;94897.78;;;18.65;75.66
5550;BME280;2798;42.716;23.256;2023-05-25T08:30:14;94896.19;;;18.73;77.37
5550;BME280;2798;42.716;23.256;2023-05-25T08:32:39;94903.44;;;18.52;81.64
5550;BME280;2798;42.716;23.256;2023-05-25T08:35:05;94901.47;;;18.46;84.78
5550;BME280;2798;42.716;23.256;2023-05-25T08:37:31;94900.50;;;18.47;84.82
5550;BME280;2798;42.716;23.256;2023-05-25T08:39:56;94896.28;;;18.55;83.23
5550;BME280;2798;42.716;23.256;2023-05-25T08:42:25;94901.03;;;18.59;79.79
5550;BME280;2798;42.716;23.256;2023-05-25T08:44:50;94903.16;;;18.64;79.72
5550;BME280;2798;42.716;23.256;2023-05-25T08:47:16;94896.59;;;18.51;80.61
5550;BME280;2798;42.716;23.256;2023-05-25T08:49:43;94907.06;;;18.60;84.00
5550;BME280;2798;42.716;23.256;2023-05-25T08:52:12;94908.25;;;18.74;82.47
5550;BME280;2798;42.716;23.256;2023-05-25T08:54:41;94914.47;;;18.81;82.83
5550;BME280;2798;42.716;23.256;2023-05-25T08:57:19;94909.91;;;18.83;86.94
5550;BME280;2798;42.716;23.256;2023-05-25T09:00:04;94916.47;;;18.87;87.29
5550;BME280;2798;42.716;23.256;2023-05-25T09:02:37;94926.75;;;18.97;85.98
5550;BME280;2798;42.716;23.256;2023-05-25T09:05:04;94922.34;;;18.98;81.44
5550;BME280;2798;42.716;23.256;2023-05-25T09:07:30;94927.38;;;18.91;86.41
5550;BME280;2798;42.716;23.256;2023-05-25T09:09:56;94941.06;;;18.93;81.59
5550;BME280;2798;42.716;23.256;2023-05-25T09:12:22;94935.03;;;18.93;81.38
5550;BME280;2798;42.716;23.256;2023-05-25T09:14:48;94933.06;;;18.78;84.74
5550;BME280;2798;42.716;23.256;2023-05-25T09:17:15;94938.75;;;18.82;89.51
5550;BME280;2798;42.716;23.256;2023-05-25T09:19:41;94937.63;;;18.84;88.71
5550;BME280;2798;42.716;23.256;2023-05-25T09:22:07;94927.69;;;18.88;88.61
5550;BME280;2798;42.716;23.256;2023-05-25T09:24:34;94937.50;;;18.94;88.26
5550;BME280;2798;42.716;23.256;2023-05-25T09:27:01;94943.53;;;19.03;91.00
5550;BME280;2798;42.716;23.256;2023-05-25T09:29:28;94925.19;;;19.13;89.92
5550;BME280;2798;42.716;23.256;2023-05-25T09:31:53;94930.75;;;19.26;89.59
5550;BME280;2798;42.716;23.256;2023-05-25T09:34:18;94936.13;;;19.33;90.44
5550;BME280;2798;42.716;23.256;2023-05-25T09:36:43;94939.09;;;19.47;91.61
5550;BME280;2798;42.716;23.256;2023-05-25T09:39:09;94929.81;;;19.61;91.47
5550;BME280;2798;42.716;23.256;2023-05-25T09:41:41;94937.97;;;19.74;90.00
5550;BME280;2798;42.716;23.256;2023-05-25T09:44:07;94927.22;;;19.77;89.48
5550;BME280;2798;42.716;23.256;2023-05-25T09:46:32;94925.41;;;19.86;87.40
5550;BME280;2798;42.716;23.256;2023-05-25T09:49:03;94926.06;;;19.88;87.00
5550;BME280;2798;42.716;23.256;2023-05-25T09:51:29;94927.50;;;19.91;87.92
5550;BME280;2798;42.716;23.256;2023-05-25T09:54:01;94927.19;;;20.03;86.95
5550;BME280;2798;42.716;23.256;2023-05-25T09:56:27;94927.69;;;20.15;86.90
5550;BME280;2798;42.716;23.256;2023-05-25T09:58:52;94920.19;;;20.20;86.01
5550;BME280;2798;42.716;23.256;2023-05-25T10:01:18;94918.00;;;20.32;85.54
5550;BME280;2798;42.716;23.256;2023-05-25T10:03:44;94919.59;;;20.41;85.59
5550;BME280;2798;42.716;23.256;2023-05-25T10:06:11;94912.88;;;20.55;84.78
5550;BME280;2798;42.716;23.256;2023-05-25T10:08:36;94911.34;;;20.69;81.45
5550;BME280;2798;42.716;23.256;2023-05-25T10:11:02;94910.66;;;20.75;82.80
5550;BME280;2798;42.716;23.256;2023-05-25T10:13:27;94905.41;;;20.84;80.22
5550;BME280;2798;42.716;23.256;2023-05-25T10:15:54;94900.16;;;20.92;75.30
5550;BME280;2798;42.716;23.256;2023-05-25T10:18:23;94893.59;;;20.96;78.07
5550;BME280;2798;42.716;23.256;2023-05-25T10:20:49;94897.16;;;21.04;78.65
5550;BME280;2798;42.716;23.256;2023-05-25T10:23:17;94886.19;;;21.08;79.25
5550;BME280;2798;42.716;23.256;2023-05-25T10:25:45;94884.66;;;21.14;75.64
5550;BME280;2798;42.716;23.256;2023-05-25T10:28:30;94882.00;;;21.22;70.83
5550;BME280;2798;42.716;23.256;2023-05-25T10:30:59;94874.66;;;21.18;74.63
5550;BME280;2798;42.716;23.256;2023-05-25T10:33:26;94864.91;;;21.11;77.05
5550;BME280;2798;42.716;23.256;2023-05-25T10:35:53;94883.44;;;21.25;78.32
5550;BME280;2798;42.716;23.256;2023-05-25T10:38:20;94864.41;;;21.31;78.07
5550;BME280;2798;42.716;23.256;2023-05-25T10:40:46;94866.72;;;21.34;79.94
5550;BME280;2798;42.716;23.256;2023-05-25T10:43:16;94844.66;;;21.29;78.23
5550;BME280;2798;42.716;23.256;2023-05-25T10:45:43;94824.78;;;21.19;78.43
5550;BME280;2798;42.716;23.256;2023-05-25T10:48:09;94818.66;;;21.27;77.76
5550;BME280;2798;42.716;23.256;2023-05-25T10:50:35;94844.66;;;21.52;78.02
5550;BME280;2798;42.716;23.256;2023-05-25T10:53:13;94842.09;;;21.59;76.55
5550;BME280;2798;42.716;23.256;2023-05-25T10:56:02;94843.22;;;21.65;75.79
5550;BME280;2798;42.716;23.256;2023-05-25T10:58:28;94836.63;;;21.69;75.10
5550;BME280;2798;42.716;23.256;2023-05-25T11:01:07;94832.03;;;21.71;75.17
5550;BME280;2798;42.716;23.256;2023-05-25T11:06:18;94831.16;;;21.79;72.52
5550;BME280;2798;42.716;23.256;2023-05-25T11:08:58;94829.44;;;21.86;72.56
5550;BME280;2798;42.716;23.256;2023-05-25T11:14:26;94819.25;;;21.91;71.78
5550;BME280;2798;42.716;23.256;2023-05-25T11:17:12;94837.03;;;21.96;71.56
5550;BME280;2798;42.716;23.256;2023-05-25T11:19:50;94832.25;;;22.00;71.46
5550;BME280;2798;42.716;23.256;2023-05-25T11:22:17;94839.75;;;22.03;69.68
5550;BME280;2798;42.716;23.256;2023-05-25T11:24:50;94826.00;;;22.01;68.41
5550;BME280;2798;42.716;23.256;2023-05-25T11:27:31;94834.16;;;22.06;67.97
5550;BME280;2798;42.716;23.256;2023-05-25T11:29:58;94849.09;;;22.05;68.30
5550;BME280;2798;42.716;23.256;2023-05-25T11:32:25;94831.50;;;21.76;70.79
5550;BME280;2798;42.716;23.256;2023-05-25T11:34:51;94841.94;;;21.60;71.27
5550;BME280;2798;42.716;23.256;2023-05-25T11:39:41;94836.69;;;21.45;70.79
5550;BME280;2798;42.716;23.256;2023-05-25T11:44:38;94832.56;;;21.66;69.69
5550;BME280;2798;42.716;23.256;2023-05-25T11:47:06;94831.88;;;21.49;72.40
5550;BME280;2798;42.716;23.256;2023-05-25T11:49:39;94824.88;;;21.03;73.63
5550;BME280;2798;42.716;23.256;2023-05-25T11:52:18;94825.38;;;20.74;75.08
5550;BME280;2798;42.716;23.256;2023-05-25T11:54:44;94824.50;;;20.82;75.55
5550;BME280;2798;42.716;23.256;2023-05-25T11:59:38;94828.72;;;20.92;69.52
5550;BME280;2798;42.716;23.256;2023-05-25T12:02:04;94826.97;;;21.07;69.11
5550;BME280;2798;42.716;23.256;2023-05-25T12:04:33;94826.50;;;21.27;68.54
5550;BME280;2798;42.716;23.256;2023-05-25T12:07:03;94820.34;;;21.20;69.25
5550;BME280;2798;42.716;23.256;2023-05-25T12:09:28;94818.06;;;21.40;69.40
5550;BME280;2798;42.716;23.256;2023-05-25T12:11:54;94819.00;;;21.63;68.76
5550;BME280;2798;42.716;23.256;2023-05-25T12:14:19;94821.59;;;21.86;69.09
5550;BME280;2798;42.716;23.256;2023-05-25T12:16:45;94816.91;;;22.12;66.78
5550;BME280;2798;42.716;23.256;2023-05-25T12:19:11;94817.72;;;22.27;62.90
5550;BME280;2798;42.716;23.256;2023-05-25T12:21:38;94811.38;;;22.37;63.27
5550;BME280;2798;42.716;23.256;2023-05-25T12:24:04;94799.94;;;22.44;62.62
5550;BME280;2798;42.716;23.256;2023-05-25T12:26:30;94792.81;;;22.53;60.83
5550;BME280;2798;42.716;23.256;2023-05-25T12:29:04;94784.91;;;22.68;59.74
5550;BME280;2798;42.716;23.256;2023-05-25T12:31:36;94787.75;;;22.89;59.94
5550;BME280;2798;42.716;23.256;2023-05-25T12:34:13;94790.94;;;23.06;57.32
5550;BME280;2798;42.716;23.256;2023-05-25T12:36:46;94782.22;;;23.27;57.25
5550;BME280;2798;42.716;23.256;2023-05-25T12:39:17;94786.63;;;23.42;55.66
5550;BME280;2798;42.716;23.256;2023-05-25T12:41:52;94786.44;;;23.43;53.39
5550;BME280;2798;42.716;23.256;2023-05-25T12:44:37;94786.75;;;23.62;53.76
5550;BME280;2798;42.716;23.256;2023-05-25T12:47:20;94782.03;;;23.86;53.80
5550;BME280;2798;42.716;23.256;2023-05-25T12:50:11;94772.78;;;23.55;52.82
5550;BME280;2798;42.716;23.256;2023-05-25T12:52:39;94765.94;;;23.61;51.49
5550;BME280;2798;42.716;23.256;2023-05-25T12:57:43;94753.53;;;23.83;51.50
5550;BME280;2798;42.716;23.256;2023-05-25T13:00:09;94735.03;;;23.98;51.82
5550;BME280;2798;42.716;23.256;2023-05-25T13:02:35;94743.06;;;24.32;51.37
5550;BME280;2798;42.716;23.256;2023-05-25T13:05:00;94741.50;;;24.51;49.53
5550;BME280;2798;42.716;23.256;2023-05-25T13:07:26;94741.94;;;24.55;50.08
5550;BME280;2798;42.716;23.256;2023-05-25T13:09:52;94743.75;;;24.61;51.17
5550;BME280;2798;42.716;23.256;2023-05-25T13:12:17;94735.47;;;24.78;49.06
5550;BME280;2798;42.716;23.256;2023-05-25T13:14:43;94735.69;;;24.83;49.42
5550;BME280;2798;42.716;23.256;2023-05-25T13:17:09;94731.47;;;25.02;49.19
5550;BME280;2798;42.716;23.256;2023-05-25T13:19:34;94731.88;;;25.26;48.70
5550;BME280;2798;42.716;23.256;2023-05-25T13:22:00;94734.31;;;25.28;46.37
5550;BME280;2798;42.716;23.256;2023-05-25T13:24:25;94723.75;;;25.48;46.59
5550;BME280;2798;42.716;23.256;2023-05-25T13:26:52;94730.06;;;25.06;44.96
5550;BME280;2798;42.716;23.256;2023-05-25T13:29:17;94719.50;;;24.73;45.33
5550;BME280;2798;42.716;23.256;2023-05-25T13:31:43;94715.03;;;24.60;45.29
5550;BME280;2798;42.716;23.256;2023-05-25T13:34:08;94710.50;;;24.33;44.61
5550;BME280;2798;42.716;23.256;2023-05-25T13:36:34;94714.53;;;24.29;44.51
5550;BME280;2798;42.716;23.256;2023-05-25T13:39:00;94687.63;;;24.27;45.36
5550;BME280;2798;42.716;23.256;2023-05-25T13:41:26;94716.84;;;24.86;42.53
5550;BME280;2798;42.716;23.256;2023-05-25T13:43:52;94720.13;;;25.15;41.97
5550;BME280;2798;42.716;23.256;2023-05-25T13:46:18;94724.38;;;25.37;42.70
5550;BME280;2798;42.716;23.256;2023-05-25T13:48:43;94724.16;;;25.65;42.88
5550;BME280;2798;42.716;23.256;2023-05-25T13:51:15;94716.56;;;25.96;41.87
5550;BME280;2798;42.716;23.256;2023-05-25T13:53:42;94719.38;;;26.08;40.86
5550;BME280;2798;42.716;23.256;2023-05-25T13:56:08;94720.88;;;26.29;40.14
5550;BME280;2798;42.716;23.256;2023-05-25T13:58:34;94722.56;;;26.24;39.30
5550;BME280;2798;42.716;23.256;2023-05-25T14:01:01;94721.72;;;26.37;39.12